createdAt,value
2019-01-31T00:02:22.466Z,23.80
2019-01-31T00:05:19.618Z,24.13
2019-01-31T00:08:25.495Z,21.20
2019-01-31T00:11:20.873Z,23.30
2019-01-31T00:14:31.834Z,22.90
2019-01-31T00:17:19.228Z,22.63
2019-01-31T00:20:33.523Z,23.30
2019-01-31T00:23:26.561Z,22.10
2019-01-31T00:26:34.355Z,24.73
2019-01-31T00:29:22.558Z,25.00
2019-01-31T00:32:08.320Z,23.23
2019-01-31T00:35:08.725Z,21.70
2019-01-31T00:38:02.270Z,23.33
2019-01-31T00:41:00.249Z,20.87
2019-01-31T00:43:55.847Z,21.93
2019-01-31T00:46:42.468Z,21.93
2019-01-31T00:49:52.478Z,22.03
2019-01-31T00:53:14.398Z,22.93
2019-01-31T00:56:17.787Z,23.00
2019-01-31T00:59:04.293Z,24.87
2019-01-31T01:01:59.943Z,23.37
2019-01-31T01:05:17.954Z,23.13
2019-01-31T01:08:34.794Z,22.77
2019-01-31T01:11:56.733Z,24.30
2019-01-31T01:15:06.804Z,19.53
2019-01-31T01:18:08.406Z,21.77
2019-01-31T01:21:10.817Z,22.30
2019-01-31T01:23:52.341Z,24.23
2019-01-31T01:26:39.149Z,23.00
2019-01-31T01:29:32.949Z,23.20
2019-01-31T01:32:47.014Z,22.23
2019-01-31T01:35:47.517Z,22.97
2019-01-31T01:38:57.491Z,21.10
2019-01-31T01:41:54.720Z,22.97
2019-01-31T01:45:14.801Z,22.77
2019-01-31T01:47:50.462Z,22.13
2019-01-31T01:51:00.416Z,21.83
2019-01-31T01:54:02.139Z,22.97
2019-01-31T01:57:04.160Z,21.80
2019-01-31T02:00:01.223Z,22.57
2019-01-31T02:03:13.245Z,22.10
2019-01-31T02:06:17.315Z,22.77
2019-01-31T02:09:30.103Z,21.53
2019-01-31T02:12:50.916Z,21.97
2019-01-31T02:15:42.253Z,24.63
2019-01-31T02:18:36.155Z,22.10
2019-01-31T02:21:48.926Z,21.73
2019-01-31T02:24:34.563Z,21.77
2019-01-31T02:27:39.049Z,23.20
2019-01-31T02:30:42.226Z,23.30
2019-01-31T02:33:44.905Z,21.40
2019-01-31T02:36:36.078Z,22.27
2019-01-31T02:39:53.198Z,21.33
2019-01-31T02:42:55.286Z,20.93
2019-01-31T02:46:03.327Z,20.73
2019-01-31T02:49:04.372Z,21.77
2019-01-31T02:52:05.128Z,22.10
2019-01-31T02:55:02.729Z,21.07
2019-01-31T02:58:15.929Z,21.73
2019-01-31T03:01:13.902Z,23.23
2019-01-31T03:04:03.561Z,20.80
2019-01-31T03:07:12.958Z,20.40
2019-01-31T03:10:20.640Z,22.20
2019-01-31T03:13:08.051Z,19.50
2019-01-31T03:16:07.317Z,21.90
2019-01-31T03:19:06.684Z,20.93
2019-01-31T03:22:19.301Z,21.10
2019-01-31T03:25:18.634Z,21.70
2019-01-31T03:28:14.692Z,21.93
2019-01-31T03:31:01.392Z,22.60
2019-01-31T03:33:47.123Z,20.90
2019-01-31T03:36:58.278Z,20.13
2019-01-31T03:39:47.266Z,20.33
2019-01-31T03:43:10.978Z,22.27
2019-01-31T03:46:05.169Z,20.53
2019-01-31T03:49:16.511Z,21.00
2019-01-31T03:52:28.388Z,20.57
2019-01-31T03:55:18.696Z,22.30
2019-01-31T03:58:23.741Z,21.40
2019-01-31T04:01:30.342Z,21.67
2019-01-31T04:04:14.862Z,21.47
2019-01-31T04:06:44.814Z,21.17
2019-01-31T04:09:14.758Z,21.80
2019-01-31T04:11:44.659Z,20.03
2019-01-31T04:14:14.517Z,19.83
2019-01-31T04:16:44.449Z,20.07
2019-01-31T04:19:14.382Z,21.33
2019-01-31T04:21:44.318Z,21.07
2019-01-31T04:24:14.229Z,20.77
2019-01-31T04:26:44.604Z,20.97
2019-01-31T04:29:14.568Z,20.40
2019-01-31T04:31:44.445Z,20.63
2019-01-31T04:34:14.374Z,22.07
2019-01-31T04:36:44.334Z,21.13
2019-01-31T04:39:14.278Z,21.97
2019-01-31T04:41:44.234Z,20.10
2019-01-31T04:44:14.166Z,20.53
2019-01-31T04:46:44.042Z,20.53
2019-01-31T04:49:13.961Z,20.80
2019-01-31T04:51:43.853Z,21.67
2019-01-31T04:54:13.787Z,20.70
2019-01-31T04:56:43.672Z,21.53
2019-01-31T04:59:13.670Z,19.53
2019-01-31T05:01:43.543Z,21.33
2019-01-31T05:04:13.470Z,19.97
2019-01-31T05:06:43.321Z,20.40
2019-01-31T05:09:13.198Z,20.80
2019-01-31T05:11:43.171Z,21.03
2019-01-31T05:14:13.036Z,21.17
2019-01-31T05:16:43.029Z,21.10
2019-01-31T05:19:12.987Z,22.20
2019-01-31T05:21:42.862Z,20.23
2019-01-31T05:24:12.824Z,20.77
2019-01-31T05:26:42.873Z,20.43
2019-01-31T05:29:12.890Z,20.87
2019-01-31T05:31:42.843Z,21.70
2019-01-31T05:34:12.780Z,21.67
2019-01-31T05:36:42.706Z,20.73
2019-01-31T05:39:12.610Z,20.67
2019-01-31T05:41:42.481Z,20.37
2019-01-31T05:44:12.426Z,20.50
2019-01-31T05:46:42.278Z,20.10
2019-01-31T05:49:12.185Z,21.07
2019-01-31T05:51:42.116Z,21.50
2019-01-31T05:54:12.054Z,20.40
2019-01-31T05:56:42.046Z,19.10
2019-01-31T05:59:12.050Z,19.57
2019-01-31T06:01:42.066Z,21.80
2019-01-31T06:04:12.067Z,19.93
2019-01-31T06:06:42.093Z,19.80
2019-01-31T06:09:12.073Z,19.33
2019-01-31T06:11:41.847Z,20.13
2019-01-31T06:14:11.795Z,18.27
2019-01-31T06:16:41.720Z,19.53
2019-01-31T06:19:11.598Z,20.27
2019-01-31T06:21:41.452Z,20.80
2019-01-31T06:24:11.336Z,18.97
2019-01-31T06:26:41.194Z,18.50
2019-01-31T06:29:11.150Z,19.03
2019-01-31T06:31:41.039Z,18.83
2019-01-31T06:34:10.923Z,19.80
2019-01-31T06:36:40.894Z,20.53
2019-01-31T06:39:10.922Z,18.17
2019-01-31T06:41:40.782Z,19.80
2019-01-31T06:44:10.665Z,19.23
2019-01-31T06:46:40.604Z,18.87
2019-01-31T06:49:10.522Z,18.93
2019-01-31T06:51:40.478Z,19.23
2019-01-31T06:54:10.374Z,19.10
2019-01-31T06:56:40.381Z,21.17
2019-01-31T06:59:10.377Z,20.07
2019-01-31T07:01:40.435Z,19.63
2019-01-31T07:04:11.105Z,18.07
2019-01-31T07:06:41.263Z,19.57
2019-01-31T07:09:13.338Z,19.27
2019-01-31T07:11:43.119Z,20.07
2019-01-31T07:14:13.080Z,19.37
2019-01-31T07:16:42.957Z,19.17
2019-01-31T07:19:12.810Z,19.80
2019-01-31T07:21:42.798Z,19.90
2019-01-31T07:24:12.662Z,18.40
2019-01-31T07:26:42.623Z,20.57
2019-01-31T07:29:12.512Z,20.43
2019-01-31T07:31:42.441Z,19.50
2019-01-31T07:34:12.294Z,18.80
2019-01-31T07:36:42.272Z,20.50
2019-01-31T07:39:13.162Z,20.60
2019-01-31T07:41:43.086Z,18.40
2019-01-31T07:44:13.033Z,21.20
2019-01-31T07:46:42.914Z,17.43
2019-01-31T07:49:12.770Z,20.33
2019-01-31T07:51:42.645Z,18.50
2019-01-31T07:54:12.569Z,19.67
2019-01-31T07:56:42.529Z,20.50
2019-01-31T07:59:12.457Z,19.03
2019-01-31T08:01:42.417Z,18.77
2019-01-31T08:04:12.299Z,19.33
2019-01-31T08:06:42.193Z,20.17
2019-01-31T08:09:12.202Z,19.23
2019-01-31T08:11:52.345Z,18.07
2019-01-31T08:14:14.501Z,17.20
2019-01-31T08:16:44.369Z,18.53
2019-01-31T08:19:14.233Z,18.77
2019-01-31T08:21:44.158Z,18.30
2019-01-31T08:24:14.088Z,19.97
2019-01-31T08:26:44.041Z,17.70
2019-01-31T08:29:13.978Z,19.83
2019-01-31T08:31:43.869Z,19.43
2019-01-31T08:34:13.830Z,19.87
2019-01-31T08:36:43.779Z,18.77
2019-01-31T08:39:13.679Z,17.33
2019-01-31T08:41:43.686Z,21.83
2019-01-31T08:44:13.757Z,19.83
2019-01-31T08:46:43.605Z,22.10
2019-01-31T08:49:13.619Z,21.10
2019-01-31T08:51:43.515Z,21.83
2019-01-31T08:54:13.608Z,22.63
2019-01-31T08:56:43.529Z,22.33
2019-01-31T08:59:13.402Z,28.43
2019-01-31T09:01:43.270Z,24.33
2019-01-31T09:04:13.158Z,25.37
2019-01-31T09:06:43.106Z,30.80
2019-01-31T09:09:14.343Z,27.03
2019-01-31T09:11:44.288Z,26.43
2019-01-31T09:14:14.206Z,30.30
2019-01-31T09:16:44.089Z,30.00
2019-01-31T09:19:14.023Z,41.83
2019-01-31T09:22:21.508Z,53.60
2019-01-31T09:25:42.067Z,50.47
2019-01-31T09:28:42.540Z,37.93
2019-01-31T09:31:44.012Z,40.97
2019-01-31T09:34:50.237Z,41.13
2019-01-31T09:38:30.629Z,41.03
2019-01-31T09:41:36.566Z,47.17
2019-01-31T09:44:47.122Z,39.83
2019-01-31T09:47:56.594Z,35.63
2019-01-31T09:51:05.928Z,30.97
2019-01-31T09:53:59.877Z,39.63
2019-01-31T09:57:15.765Z,34.47
2019-01-31T10:00:09.886Z,29.00
2019-01-31T10:03:36.373Z,31.93
2019-01-31T10:06:29.024Z,38.87
2019-01-31T10:09:27.169Z,33.43
2019-01-31T10:12:37.529Z,28.43
2019-01-31T10:15:11.213Z,30.60
2019-01-31T10:18:16.256Z,35.43
2019-01-31T10:21:42.766Z,28.40
2019-01-31T10:24:59.081Z,25.37
2019-01-31T10:28:05.783Z,28.73
2019-01-31T10:31:31.958Z,32.37
2019-01-31T10:34:30.382Z,30.53
2019-01-31T10:37:40.591Z,29.53
2019-01-31T10:40:48.754Z,29.23
2019-01-31T10:43:46.283Z,32.10
2019-01-31T10:46:26.810Z,27.40
2019-01-31T10:49:28.759Z,25.53
2019-01-31T10:52:17.306Z,25.57
2019-01-31T10:55:31.533Z,23.60
2019-01-31T10:59:09.751Z,25.80
2019-01-31T11:02:26.694Z,25.57
2019-01-31T11:05:52.582Z,21.50
2019-01-31T11:09:03.846Z,28.93
2019-01-31T11:11:41.169Z,22.10
2019-01-31T11:14:39.445Z,20.90
2019-01-31T11:17:56.342Z,95.07
2019-01-31T11:21:03.566Z,178.80
2019-01-31T11:24:20.825Z,152.37
2019-01-31T11:27:24.705Z,130.20
2019-01-31T11:30:11.417Z,132.27
2019-01-31T11:33:19.640Z,132.93
2019-01-31T11:36:22.834Z,115.17
2019-01-31T11:39:37.830Z,107.40
2019-01-31T11:42:45.434Z,109.67
2019-01-31T11:45:59.710Z,100.67
2019-01-31T11:48:55.850Z,96.00
2019-01-31T11:51:54.554Z,99.97
2019-01-31T11:54:44.751Z,86.97
2019-01-31T11:58:01.592Z,87.90
2019-01-31T12:00:32.170Z,86.20
2019-01-31T12:03:02.031Z,87.50
2019-01-31T12:05:31.884Z,84.47
2019-01-31T12:08:01.745Z,77.53
2019-01-31T12:10:31.639Z,78.30
2019-01-31T12:13:01.711Z,82.20
2019-01-31T12:15:31.640Z,72.17
2019-01-31T12:18:03.242Z,72.30
2019-01-31T12:20:33.183Z,77.83
2019-01-31T12:23:03.085Z,65.40
2019-01-31T12:25:33.023Z,113.27
2019-01-31T12:28:02.984Z,115.43
2019-01-31T12:30:32.842Z,131.27
2019-01-31T12:33:02.702Z,155.67
2019-01-31T12:35:32.645Z,142.53
2019-01-31T12:38:02.578Z,136.00
2019-01-31T12:40:35.188Z,126.40
2019-01-31T12:43:05.213Z,146.10
2019-01-31T12:45:35.146Z,119.97
2019-01-31T12:48:05.021Z,110.60
2019-01-31T12:50:35.014Z,98.07
2019-01-31T12:53:05.112Z,97.40
2019-01-31T12:55:35.102Z,100.40
2019-01-31T12:58:05.083Z,94.80
2019-01-31T13:00:34.953Z,89.90
2019-01-31T13:03:04.942Z,94.00
2019-01-31T13:05:34.911Z,109.10
2019-01-31T13:08:04.843Z,138.03
2019-01-31T13:10:34.820Z,126.40
2019-01-31T13:13:04.702Z,123.10
2019-01-31T13:15:34.882Z,107.03
2019-01-31T13:18:04.914Z,114.23
2019-01-31T13:20:36.279Z,127.40
2019-01-31T13:23:06.219Z,110.83
2019-01-31T13:25:36.179Z,108.93
2019-01-31T13:28:06.106Z,102.87
2019-01-31T13:30:36.006Z,108.83
2019-01-31T13:33:05.995Z,94.40
2019-01-31T13:35:35.919Z,90.73
2019-01-31T13:38:05.946Z,94.83
2019-01-31T13:40:35.827Z,90.30
2019-01-31T13:43:06.018Z,96.13
2019-01-31T13:45:37.438Z,91.40
2019-01-31T13:48:12.884Z,80.20
2019-01-31T13:50:42.793Z,90.70
2019-01-31T13:53:12.815Z,81.53
2019-01-31T13:55:42.813Z,81.50
2019-01-31T13:58:12.769Z,71.90
2019-01-31T14:00:42.654Z,75.23
2019-01-31T14:03:12.506Z,78.80
2019-01-31T14:05:42.429Z,73.47
2019-01-31T14:08:12.313Z,75.43
2019-01-31T14:10:42.250Z,71.37
2019-01-31T14:13:12.210Z,58.50
2019-01-31T14:15:42.001Z,62.77
2019-01-31T14:18:11.990Z,67.33
2019-01-31T14:20:41.866Z,64.13
2019-01-31T14:23:11.881Z,61.63
2019-01-31T14:25:41.921Z,57.13
2019-01-31T14:28:11.935Z,65.67
2019-01-31T14:30:42.121Z,59.80
2019-01-31T14:33:19.413Z,52.43
2019-01-31T14:35:49.519Z,60.80
2019-01-31T14:38:19.488Z,60.30
2019-01-31T14:40:49.412Z,65.70
2019-01-31T14:43:20.162Z,55.37
2019-01-31T14:45:50.047Z,52.23
2019-01-31T14:48:20.034Z,55.63
2019-01-31T14:50:49.912Z,54.57
2019-01-31T14:53:20.770Z,51.53
2019-01-31T14:55:50.733Z,50.73
2019-01-31T14:58:20.672Z,50.07
2019-01-31T15:00:50.591Z,48.43
2019-01-31T15:03:20.519Z,46.90
2019-01-31T15:05:50.502Z,51.27
2019-01-31T15:08:20.449Z,45.50
2019-01-31T15:10:50.327Z,45.47
2019-01-31T15:13:20.183Z,42.90
2019-01-31T15:15:50.349Z,43.90
2019-01-31T15:18:20.420Z,47.60
2019-01-31T15:20:50.349Z,43.57
2019-01-31T15:23:20.262Z,44.27
2019-01-31T15:25:50.196Z,45.07
2019-01-31T15:28:20.079Z,40.17
2019-01-31T15:30:49.946Z,37.57
2019-01-31T15:33:20.175Z,38.43
2019-01-31T15:35:51.134Z,39.10
2019-01-31T15:38:21.077Z,41.27
2019-01-31T15:40:51.060Z,36.50
2019-01-31T15:43:21.117Z,44.40
2019-01-31T15:45:51.093Z,38.60
2019-01-31T15:48:21.162Z,36.53
2019-01-31T15:50:51.025Z,34.60
2019-01-31T15:53:22.194Z,34.47
2019-01-31T15:55:52.468Z,31.97
2019-01-31T15:58:22.425Z,30.83
2019-01-31T16:00:54.626Z,31.47
2019-01-31T16:03:25.766Z,32.43
2019-01-31T16:05:55.715Z,31.57
2019-01-31T16:08:26.029Z,34.13
2019-01-31T16:10:56.083Z,34.03
2019-01-31T16:13:26.066Z,31.90
2019-01-31T16:15:55.967Z,31.40
2019-01-31T16:18:26.394Z,31.57
2019-01-31T16:20:56.263Z,30.13
2019-01-31T16:23:26.464Z,29.70
2019-01-31T16:25:56.404Z,28.37
2019-01-31T16:28:26.262Z,26.57
2019-01-31T16:30:56.285Z,27.60
2019-01-31T16:33:26.217Z,27.53
2019-01-31T16:35:56.178Z,27.53
2019-01-31T16:38:26.171Z,28.13
2019-01-31T16:40:56.114Z,29.00
2019-01-31T16:43:26.054Z,28.27
2019-01-31T16:45:55.991Z,26.63
2019-01-31T16:48:25.915Z,26.90
2019-01-31T16:50:55.774Z,27.37
2019-01-31T16:53:25.748Z,26.57
2019-01-31T16:55:55.784Z,27.47
2019-01-31T16:58:25.935Z,26.83
2019-01-31T17:00:55.867Z,25.57
2019-01-31T17:03:25.818Z,26.07
2019-01-31T17:05:55.733Z,25.43
2019-01-31T17:08:26.215Z,26.70
2019-01-31T17:10:56.178Z,23.80
2019-01-31T17:13:28.526Z,28.00
2019-01-31T17:15:58.682Z,23.57
2019-01-31T17:18:28.544Z,20.63
2019-01-31T17:20:58.413Z,20.73
2019-01-31T17:23:28.358Z,19.60
2019-01-31T17:25:58.228Z,20.33
2019-01-31T17:28:28.151Z,19.57
2019-01-31T17:30:58.059Z,18.97
2019-01-31T17:33:28.071Z,21.87
2019-01-31T17:36:16.739Z,20.80
2019-01-31T17:38:47.115Z,25.97
2019-01-31T17:41:17.266Z,18.40
2019-01-31T17:43:52.083Z,17.00
2019-01-31T17:46:22.218Z,19.60
2019-01-31T17:48:52.126Z,20.67
2019-01-31T17:51:22.113Z,26.63
2019-01-31T17:53:52.475Z,19.83
2019-01-31T17:56:24.056Z,19.37
2019-01-31T17:58:54.185Z,20.30
2019-01-31T18:01:24.152Z,22.03
2019-01-31T18:03:54.145Z,23.10
2019-01-31T18:06:26.622Z,20.73
2019-01-31T18:08:56.733Z,18.53
2019-01-31T18:11:29.912Z,20.53
2019-01-31T18:13:59.943Z,17.47
2019-01-31T18:16:29.924Z,18.63
2019-01-31T18:19:01.340Z,19.63
2019-01-31T18:21:31.186Z,19.73
2019-01-31T18:24:01.136Z,18.73
2019-01-31T18:26:31.081Z,20.07
2019-01-31T18:29:00.875Z,22.93
2019-01-31T18:31:30.838Z,19.70
2019-01-31T18:34:00.830Z,16.40
2019-01-31T18:36:30.785Z,18.73
2019-01-31T18:39:01.682Z,18.70
2019-01-31T18:41:33.219Z,20.40
2019-01-31T18:44:03.126Z,19.77
2019-01-31T18:46:33.062Z,20.57
2019-01-31T18:49:02.929Z,20.10
2019-01-31T18:51:33.025Z,18.50
2019-01-31T18:54:02.993Z,19.77
2019-01-31T18:56:32.998Z,19.00
2019-01-31T18:59:04.593Z,17.30
2019-01-31T19:01:34.566Z,21.33
2019-01-31T19:04:05.614Z,16.17
2019-01-31T19:06:35.579Z,22.37
2019-01-31T19:09:05.498Z,20.67
2019-01-31T19:11:35.570Z,19.37
2019-01-31T19:14:05.667Z,19.03
2019-01-31T19:16:35.602Z,23.10
2019-01-31T19:19:05.950Z,18.87
2019-01-31T19:21:36.109Z,20.37
2019-01-31T19:24:06.091Z,20.90
2019-01-31T19:26:36.036Z,22.47
2019-01-31T19:29:06.144Z,21.20
2019-01-31T19:31:36.095Z,21.33
2019-01-31T19:34:05.951Z,18.87
2019-01-31T19:36:35.979Z,17.23
2019-01-31T19:39:09.645Z,19.13
2019-01-31T19:41:42.444Z,15.77
2019-01-31T19:44:11.260Z,18.07
2019-01-31T19:46:41.226Z,23.63
2019-01-31T19:49:11.098Z,21.53
2019-01-31T19:51:41.061Z,16.80
2019-01-31T19:54:11.088Z,16.17
2019-01-31T19:56:41.038Z,18.30
2019-01-31T19:59:11.106Z,18.70
2019-01-31T20:01:41.203Z,16.03
2019-01-31T20:04:11.153Z,18.13
2019-01-31T20:06:41.087Z,16.07
2019-01-31T20:09:23.595Z,21.77
2019-01-31T20:11:53.640Z,122.33
2019-01-31T20:14:23.687Z,129.83
2019-01-31T20:16:53.762Z,111.70
2019-01-31T20:19:24.794Z,95.70
2019-01-31T20:21:54.887Z,104.43
2019-01-31T20:24:25.078Z,93.70
2019-01-31T20:26:55.145Z,84.33
2019-01-31T20:29:25.245Z,85.80
2019-01-31T20:31:56.412Z,84.90
2019-01-31T20:34:26.436Z,105.60
2019-01-31T20:36:56.309Z,184.40
2019-01-31T20:39:26.303Z,153.17
2019-01-31T20:41:56.238Z,156.17
2019-01-31T20:44:27.267Z,154.30
2019-01-31T20:46:57.336Z,155.77
2019-01-31T20:49:27.433Z,137.77
2019-01-31T20:51:57.406Z,117.83
2019-01-31T20:54:27.616Z,106.50
2019-01-31T20:56:57.562Z,115.87
2019-01-31T20:59:27.469Z,99.57
2019-01-31T21:01:57.441Z,90.83
2019-01-31T21:04:27.305Z,88.83
2019-01-31T21:06:57.248Z,76.30
2019-01-31T21:09:28.737Z,76.53
2019-01-31T21:11:58.849Z,75.07
2019-01-31T21:14:29.705Z,71.97
2019-01-31T21:16:59.729Z,66.03
2019-01-31T21:19:30.875Z,69.87
2019-01-31T21:22:00.822Z,67.53
2019-01-31T21:24:30.836Z,66.57
2019-01-31T21:27:00.773Z,64.53
2019-01-31T21:29:30.758Z,60.33
2019-01-31T21:32:00.698Z,60.57
2019-01-31T21:34:30.660Z,55.70
2019-01-31T21:37:00.574Z,57.67
2019-01-31T21:39:30.480Z,58.33
2019-01-31T21:42:00.693Z,56.33
2019-01-31T21:44:30.813Z,57.77
2019-01-31T21:47:03.326Z,55.30
2019-01-31T21:49:32.494Z,52.47
2019-01-31T21:52:02.427Z,57.77
2019-01-31T21:54:32.287Z,62.00
2019-01-31T21:57:03.144Z,58.07
2019-01-31T21:59:33.464Z,52.43
2019-01-31T22:02:03.392Z,51.83
2019-01-31T22:04:33.318Z,51.37
2019-01-31T22:07:03.212Z,52.13
2019-01-31T22:09:33.259Z,48.87
2019-01-31T22:12:03.270Z,53.97
2019-01-31T22:14:33.236Z,49.87
2019-01-31T22:17:13.950Z,50.37
2019-01-31T22:19:34.834Z,50.77
2019-01-31T22:22:04.853Z,50.77
2019-01-31T22:24:34.807Z,46.23
2019-01-31T22:27:04.783Z,44.90
2019-01-31T22:29:34.884Z,50.17
2019-01-31T22:32:04.818Z,48.30
2019-01-31T22:34:34.910Z,49.50
2019-01-31T22:37:04.833Z,44.87
2019-01-31T22:39:34.726Z,45.17
2019-01-31T22:42:04.605Z,47.03
2019-01-31T22:44:35.613Z,42.87
2019-01-31T22:47:05.557Z,44.10
2019-01-31T22:49:35.606Z,44.07
2019-01-31T22:52:05.558Z,43.87
2019-01-31T22:54:35.446Z,44.23
2019-01-31T22:57:05.394Z,41.53
2019-01-31T22:59:35.297Z,43.87
2019-01-31T23:02:10.410Z,42.00
2019-01-31T23:04:40.369Z,36.37
2019-01-31T23:07:10.305Z,40.20
2019-01-31T23:09:40.343Z,40.70
2019-01-31T23:12:10.201Z,36.37
2019-01-31T23:14:40.172Z,40.17
2019-01-31T23:17:10.105Z,38.50
2019-01-31T23:19:39.982Z,40.13
2019-01-31T23:22:09.841Z,42.40
2019-01-31T23:24:39.726Z,35.07
2019-01-31T23:27:09.653Z,35.57
2019-01-31T23:29:39.613Z,36.23
2019-01-31T23:32:09.541Z,37.90
2019-01-31T23:34:39.421Z,35.23
2019-01-31T23:37:09.345Z,38.17
2019-01-31T23:39:39.275Z,35.77
2019-01-31T23:42:09.144Z,34.57
2019-01-31T23:44:39.009Z,34.00
2019-01-31T23:47:08.964Z,32.87
2019-01-31T23:49:38.954Z,33.93
2019-01-31T23:52:08.847Z,31.37
2019-01-31T23:54:38.880Z,31.60
2019-01-31T23:57:08.729Z,34.23
2019-01-31T23:59:38.734Z,35.83
